createdAt,value
2023-10-08T00:07:52.624Z,4.30
2023-10-08T00:15:58.454Z,4.70
2023-10-08T00:24:13.595Z,5.40
2023-10-08T00:32:20.171Z,4.22
2023-10-08T00:40:30.770Z,4.60
2023-10-08T00:48:37.242Z,4.68
2023-10-08T00:56:54.443Z,4.15
2023-10-08T01:05:01.735Z,4.28
2023-10-08T01:13:16.110Z,4.57
2023-10-08T01:21:35.590Z,4.28
2023-10-08T01:29:45.834Z,3.97
2023-10-08T01:37:51.997Z,4.32
2023-10-08T01:46:00.201Z,4.68
2023-10-08T01:54:11.341Z,3.70
2023-10-08T02:02:20.546Z,4.30
2023-10-08T02:10:26.574Z,4.20
2023-10-08T02:18:34.607Z,4.10
2023-10-08T02:26:40.161Z,3.78
2023-10-08T02:34:48.272Z,3.90
2023-10-08T02:42:53.698Z,4.22
2023-10-08T02:59:40.571Z,4.32
2023-10-08T03:07:52.556Z,3.97
2023-10-08T03:16:11.028Z,4.45
2023-10-08T03:24:31.330Z,3.65
2023-10-08T03:32:37.087Z,4.28
2023-10-08T03:40:47.570Z,3.53
2023-10-08T03:48:53.674Z,4.60
2023-10-08T03:57:02.355Z,3.72
2023-10-08T04:05:19.852Z,4.20
2023-10-08T04:13:29.494Z,4.30
2023-10-08T04:21:35.350Z,4.75
2023-10-08T04:29:45.001Z,4.20
2023-10-08T04:37:53.861Z,4.20
2023-10-08T04:46:06.586Z,4.40
2023-10-08T04:54:12.937Z,4.30
2023-10-08T05:02:35.479Z,3.95
2023-10-08T05:11:04.503Z,5.00
2023-10-08T05:19:48.949Z,4.97
2023-10-08T05:36:29.749Z,5.35
2023-10-08T05:44:40.800Z,4.75
2023-10-08T05:53:03.564Z,5.05
2023-10-08T06:01:27.462Z,5.20
2023-10-08T06:09:41.267Z,5.68
2023-10-08T06:18:06.213Z,4.75
2023-10-08T06:26:23.256Z,4.50
2023-10-08T06:34:29.464Z,4.13
2023-10-08T06:42:38.599Z,5.40
2023-10-08T06:50:44.041Z,5.18
2023-10-08T06:58:54.638Z,4.53
2023-10-08T07:07:01.158Z,4.40
2023-10-08T07:15:13.860Z,4.30
2023-10-08T07:23:26.293Z,3.75
2023-10-08T07:31:35.731Z,5.90
2023-10-08T07:39:48.400Z,3.88
2023-10-08T07:47:56.879Z,4.90
2023-10-08T07:56:07.983Z,5.93
2023-10-08T08:04:22.816Z,5.47
2023-10-08T08:12:29.814Z,4.75
2023-10-08T08:20:40.411Z,4.40
2023-10-08T08:28:47.542Z,4.72
2023-10-08T08:36:55.763Z,4.43
2023-10-08T08:45:02.038Z,4.22
2023-10-08T08:53:11.175Z,4.32
2023-10-08T09:01:18.956Z,5.10
2023-10-08T09:09:29.296Z,3.85
2023-10-08T09:17:34.827Z,5.68
2023-10-08T09:25:43.418Z,5.40
2023-10-08T09:33:58.350Z,4.80
2023-10-08T09:42:08.620Z,4.95
2023-10-08T09:50:16.143Z,4.40
2023-10-08T09:58:26.034Z,5.18
2023-10-08T10:06:33.687Z,4.97
2023-10-08T10:14:50.082Z,4.75
2023-10-08T10:22:55.563Z,4.22
2023-10-08T10:31:05.119Z,4.78
2023-10-08T10:39:17.459Z,5.60
2023-10-08T10:47:44.229Z,5.25
2023-10-08T10:56:00.135Z,5.03
2023-10-08T11:04:17.483Z,4.85
2023-10-08T11:12:44.091Z,4.35
2023-10-08T11:21:00.743Z,7.40
2023-10-08T11:29:08.038Z,4.65
2023-10-08T11:37:27.289Z,4.47
2023-10-08T11:45:39.616Z,4.65
2023-10-08T11:53:48.225Z,4.97
2023-10-08T12:01:53.901Z,4.60
2023-10-08T12:10:01.986Z,4.75
2023-10-08T12:18:16.735Z,4.97
2023-10-08T12:26:25.107Z,4.50
2023-10-08T12:34:31.086Z,5.20
2023-10-08T12:42:40.063Z,5.45
2023-10-08T12:50:54.432Z,4.82
2023-10-08T12:59:05.641Z,4.88
2023-10-08T13:07:13.269Z,5.18
2023-10-08T13:15:27.178Z,5.75
2023-10-08T13:23:36.544Z,5.63
2023-10-08T13:31:47.437Z,5.28
2023-10-08T13:39:54.321Z,5.32
2023-10-08T13:48:03.356Z,5.78
2023-10-08T13:56:08.909Z,5.93
2023-10-08T14:04:19.275Z,5.70
2023-10-08T14:12:28.916Z,6.80
2023-10-08T14:20:41.951Z,5.75
2023-10-08T14:37:25.192Z,2.40
2023-10-08T14:45:33.119Z,2.47
2023-10-08T14:53:41.567Z,2.08
2023-10-08T15:01:48.495Z,2.30
2023-10-08T15:09:58.904Z,2.00
2023-10-08T15:18:04.757Z,2.00
2023-10-08T15:26:13.413Z,1.75
2023-10-08T15:34:32.344Z,1.80
2023-10-08T15:42:43.509Z,2.67
2023-10-08T15:50:49.134Z,2.83
2023-10-08T15:58:57.278Z,1.55
2023-10-08T16:07:02.981Z,2.20
2023-10-08T16:15:12.681Z,1.40
2023-10-08T16:23:18.672Z,1.50
2023-10-08T16:31:26.795Z,1.73
2023-10-08T16:39:32.424Z,1.27
2023-10-08T16:47:43.569Z,1.30
2023-10-08T16:55:51.338Z,1.30
2023-10-08T17:04:01.090Z,1.20
2023-10-08T17:12:11.227Z,0.98
2023-10-08T17:20:23.759Z,0.85
2023-10-08T17:28:32.283Z,1.10
2023-10-08T17:36:40.711Z,1.00
2023-10-08T17:44:46.751Z,0.88
2023-10-08T17:52:56.069Z,0.90
2023-10-08T18:01:07.578Z,0.93
2023-10-08T18:09:21.786Z,1.10
2023-10-08T18:17:27.485Z,1.58
2023-10-08T18:25:35.777Z,1.38
2023-10-08T18:33:44.820Z,1.50
2023-10-08T18:41:55.741Z,1.60
2023-10-08T18:50:12.894Z,1.85
2023-10-08T18:58:23.994Z,1.33
2023-10-08T19:06:30.373Z,1.05
2023-10-08T19:14:39.397Z,1.30
2023-10-08T19:22:47.420Z,1.38
2023-10-08T19:31:03.490Z,1.50
2023-10-08T19:39:14.840Z,1.40
2023-10-08T19:47:23.097Z,1.40
2023-10-08T19:55:28.543Z,1.20
2023-10-08T20:03:36.754Z,1.38
2023-10-08T20:11:42.332Z,1.60
2023-10-08T20:19:52.248Z,1.40
2023-10-08T20:27:57.838Z,1.60
2023-10-08T20:36:07.117Z,1.27
2023-10-08T20:44:13.663Z,1.75
2023-10-08T20:52:22.340Z,1.40
2023-10-08T21:00:31.517Z,1.80
2023-10-08T21:08:39.917Z,1.38
2023-10-08T21:16:45.299Z,1.50
2023-10-08T21:24:53.336Z,1.05
2023-10-08T21:33:00.528Z,1.48
2023-10-08T21:41:08.628Z,1.30
2023-10-08T21:49:14.389Z,1.52
2023-10-08T21:57:22.669Z,1.70
2023-10-08T22:05:31.090Z,1.67
2023-10-08T22:13:40.079Z,1.55
2023-10-08T22:21:48.012Z,1.65
2023-10-08T22:29:56.386Z,1.98
2023-10-08T22:38:06.357Z,2.35
2023-10-08T22:46:26.117Z,2.13
2023-10-08T22:54:33.540Z,1.60
2023-10-08T23:11:08.184Z,1.90
2023-10-08T23:19:16.366Z,2.38
2023-10-08T23:27:21.851Z,2.92
2023-10-08T23:35:29.940Z,2.20
2023-10-08T23:43:42.349Z,2.50
2023-10-08T23:51:53.322Z,2.35
